DEATH33 ETAR-LGSA
Flight info
| Callsign | DEATH33 |
|---|---|
| Flight time | 2h 26m |
| Altitude | 41000 |
| Route | 492615N0073701E DCT EKSUD DCT 492716N0080133E 491741N0081130E DCT BADLI Y163 PABLA Z721 UTABA L607 ELMEM N606 GIRIS DCT 454112N0111641E 443460N0121217E 431623N0140151E 413700N0151732E 400824N0161912E 383921N0171901E 364912N0194502E 345810N0222408E 335501N0252721E/N0492F430 DCT 351208N0252550E 352420N0243406E 352705N0242344E 352919N0241655E DCT 353133N0241006E |
| Aircraft | B2/H-SDE1E2E3FGHIJ2J3J4J5M1RWXY/LB1D1 |
Departure
| Time | 2026-05-07 11:57 |
|---|---|
| Airport | Ramstein Air Base (ETAR) |
Arrival
| Time | 2026-05-07 14:23 |
|---|---|
| Airport | Chania International Airport (LGSA) |
| Time | Latitude | Longitude | Altitude | Speed | Heading |
|---|---|---|---|---|---|
| 2026-05-07 11:33 | 49.43987 | 7.58978 | 769 ft | 0 kts | 266° |
| 2026-05-07 11:51 | 49.43987 | 7.58977 | 769 ft | 0 kts | 266° |
| 2026-05-07 11:52 | 49.43997 | 7.58961 | 769 ft | 3 kts | 330° |
| 2026-05-07 11:52 | 49.44034 | 7.58963 | 769 ft | 8 kts | 10° |
| 2026-05-07 11:52 | 49.44058 | 7.59029 | 769 ft | 9 kts | 88° |
| 2026-05-07 11:52 | 49.44062 | 7.59153 | 769 ft | 15 kts | 88° |
| 2026-05-07 11:53 | 49.44067 | 7.59343 | 769 ft | 20 kts | 87° |
| 2026-05-07 11:53 | 49.44109 | 7.59569 | 769 ft | 25 kts | 36° |
| 2026-05-07 11:53 | 49.44233 | 7.59697 | 769 ft | 18 kts | 99° |
| 2026-05-07 11:53 | 49.44210 | 7.59907 | 769 ft | 23 kts | 99° |
| 2026-05-07 11:54 | 49.44188 | 7.60173 | 769 ft | 27 kts | 96° |
| 2026-05-07 11:54 | 49.44165 | 7.60488 | 769 ft | 32 kts | 97° |
| 2026-05-07 11:54 | 49.44137 | 7.60848 | 769 ft | 36 kts | 96° |
| 2026-05-07 11:54 | 49.44109 | 7.61222 | 769 ft | 33 kts | 96° |
| 2026-05-07 11:55 | 49.44081 | 7.61547 | 769 ft | 27 kts | 127° |
| 2026-05-07 11:55 | 49.43938 | 7.61557 | 769 ft | 18 kts | 181° |
| 2026-05-07 11:55 | 49.43831 | 7.61565 | 767 ft | 13 kts | 176° |
| 2026-05-07 11:55 | 49.43760 | 7.61554 | 766 ft | 7 kts | 230° |
| 2026-05-07 11:56 | 49.43753 | 7.61504 | 765 ft | 7 kts | 266° |
| 2026-05-07 11:56 | 49.43737 | 7.61114 | 766 ft | 66 kts | 266° |
| 2026-05-07 11:56 | 49.43695 | 7.60121 | 768 ft | 119 kts | 266° |
| 2026-05-07 11:56 | 49.43633 | 7.58621 | 903 ft | 154 kts | 270° |
| 2026-05-07 11:57 | 49.43563 | 7.56831 | 1250 ft | 184 kts | 269° |
| 2026-05-07 11:57 | 49.43503 | 7.54788 | 1802 ft | 193 kts | 269° |
| 2026-05-07 11:57 | 49.43457 | 7.52582 | 2257 ft | 225 kts | 269° |
| 2026-05-07 11:57 | 49.43424 | 7.49985 | 2627 ft | 246 kts | 269° |
| 2026-05-07 11:58 | 49.43386 | 7.47342 | 3175 ft | 248 kts | 270° |
| 2026-05-07 11:58 | 49.42934 | 7.44743 | 3511 ft | 254 kts | 248° |
| 2026-05-07 11:58 | 49.41806 | 7.42650 | 3874 ft | 256 kts | 220° |
| 2026-05-07 11:58 | 49.40152 | 7.41590 | 4323 ft | 262 kts | 193° |
| 2026-05-07 11:59 | 49.38336 | 7.41383 | 4857 ft | 264 kts | 178° |
| 2026-05-07 11:59 | 49.36601 | 7.42286 | 5341 ft | 269 kts | 146° |
| 2026-05-07 11:59 | 49.35420 | 7.44478 | 5864 ft | 272 kts | 112° |
| 2026-05-07 11:59 | 49.35199 | 7.47337 | 6433 ft | 275 kts | 77° |
| 2026-05-07 12:00 | 49.36015 | 7.49958 | 6976 ft | 276 kts | 47° |
| 2026-05-07 12:00 | 49.37280 | 7.52142 | 7435 ft | 280 kts | 30° |
| 2026-05-07 12:00 | 49.38791 | 7.53804 | 7142 ft | 198 kts | 318° |
| 2026-05-07 12:00 | 49.39946 | 7.53533 | 4344 ft | 247 kts | 345° |
| 2026-05-07 12:01 | 49.41731 | 7.53511 | 5101 ft | 268 kts | 6° |
| 2026-05-07 12:01 | 49.43591 | 7.54530 | 5525 ft | 301 kts | 22° |
| 2026-05-07 12:01 | 49.45212 | 7.56403 | 5945 ft | 276 kts | 43° |
| 2026-05-07 12:01 | 49.46219 | 7.58948 | 6087 ft | 296 kts | 68° |
| 2026-05-07 12:02 | 49.46462 | 7.62051 | 6566 ft | 280 kts | 94° |
| 2026-05-07 12:02 | 49.45806 | 7.64778 | 6910 ft | 277 kts | 122° |
| 2026-05-07 12:02 | 49.44652 | 7.67126 | 7439 ft | 276 kts | 134° |
| 2026-05-07 12:02 | 49.43506 | 7.69556 | 7565 ft | 284 kts | 149° |
| 2026-05-07 12:03 | 49.42376 | 7.70537 | 4728 ft | 245 kts | 221° |
| 2026-05-07 12:03 | 49.40934 | 7.67966 | 5215 ft | 294 kts | 242° |
| 2026-05-07 12:03 | 49.40413 | 7.65103 | 7697 ft | 274 kts | 271° |
| 2026-05-07 12:03 | 49.40888 | 7.62361 | 9185 ft | 268 kts | 299° |
| 2026-05-07 12:04 | 49.42203 | 7.60156 | 9626 ft | 303 kts | 330° |
| 2026-05-07 12:04 | 49.44347 | 7.59122 | 9935 ft | 336 kts | 355° |
| 2026-05-07 12:04 | 49.46723 | 7.59370 | 10822 ft | 355 kts | 6° |
| 2026-05-07 12:04 | 49.48332 | 7.60095 | 11127 ft | 374 kts | 19° |
| 2026-05-07 12:05 | 49.50559 | 7.62208 | 11654 ft | 365 kts | 40° |
| 2026-05-07 12:05 | 49.52008 | 7.65132 | 12151 ft | 331 kts | 62° |
| 2026-05-07 12:05 | 49.52781 | 7.68439 | 12590 ft | 333 kts | 76° |
| 2026-05-07 12:05 | 49.52806 | 7.72008 | 13056 ft | 337 kts | 98° |
| 2026-05-07 12:06 | 49.52113 | 7.75453 | 13585 ft | 339 kts | 112° |
| 2026-05-07 12:06 | 49.51149 | 7.78802 | 14100 ft | 344 kts | 119° |
| 2026-05-07 12:06 | 49.50029 | 7.82095 | 14578 ft | 350 kts | 124° |
| 2026-05-07 12:06 | 49.48920 | 7.85407 | 14732 ft | 334 kts | 141° |
| 2026-05-07 12:07 | 49.47731 | 7.88521 | 15036 ft | 347 kts | 117° |
| 2026-05-07 12:07 | 49.46994 | 7.92052 | 15464 ft | 347 kts | 107° |
| 2026-05-07 12:07 | 49.46442 | 7.95733 | 15960 ft | 362 kts | 105° |
| 2026-05-07 12:07 | 49.45882 | 7.99605 | 16490 ft | 379 kts | 104° |
| 2026-05-07 12:08 | 49.45122 | 8.03488 | 17078 ft | 378 kts | 109° |
| 2026-05-07 12:08 | 49.43877 | 8.07083 | 17833 ft | 387 kts | 128° |
| 2026-05-07 12:08 | 49.41879 | 8.09871 | 18612 ft | 392 kts | 150° |
| 2026-05-07 12:08 | 49.39395 | 8.11593 | 19348 ft | 394 kts | 165° |
| 2026-05-07 12:09 | 49.36822 | 8.12937 | 20079 ft | 399 kts | 167° |
| 2026-05-07 12:09 | 49.34186 | 8.14372 | 20801 ft | 405 kts | 163° |
| 2026-05-07 12:09 | 49.31661 | 8.16372 | 21466 ft | 413 kts | 150° |
| 2026-05-07 12:09 | 49.29421 | 8.19176 | 22232 ft | 419 kts | 138° |
| 2026-05-07 12:10 | 49.27370 | 8.22372 | 23019 ft | 423 kts | 135° |
| 2026-05-07 12:10 | 49.25054 | 8.25145 | 23720 ft | 424 kts | 142° |
| 2026-05-07 12:10 | 49.22635 | 8.27735 | 24376 ft | 425 kts | 143° |
| 2026-05-07 12:10 | 49.20176 | 8.30263 | 25095 ft | 426 kts | 146° |
| 2026-05-07 12:11 | 49.17681 | 8.32713 | 25832 ft | 427 kts | 148° |
| 2026-05-07 12:11 | 49.15153 | 8.35094 | 26626 ft | 428 kts | 151° |
| 2026-05-07 12:11 | 49.12678 | 8.37635 | 27393 ft | 429 kts | 148° |
| 2026-05-07 12:11 | 49.10365 | 8.40514 | 28176 ft | 429 kts | 141° |
| 2026-05-07 12:12 | 49.08073 | 8.43412 | 28993 ft | 427 kts | 145° |
| 2026-05-07 12:12 | 49.05481 | 8.45565 | 29822 ft | 422 kts | 158° |
| 2026-05-07 12:12 | 49.02650 | 8.46542 | 30603 ft | 415 kts | 179° |
| 2026-05-07 12:12 | 48.99831 | 8.45988 | 31386 ft | 406 kts | 201° |
| 2026-05-07 12:13 | 48.97315 | 8.44164 | 32193 ft | 398 kts | 214° |
| 2026-05-07 12:13 | 48.94926 | 8.42071 | 32715 ft | 400 kts | 215° |
| 2026-05-07 12:13 | 48.92422 | 8.40190 | 33213 ft | 401 kts | 209° |
| 2026-05-07 12:13 | 48.89768 | 8.38694 | 33370 ft | 413 kts | 199° |
| 2026-05-07 12:14 | 48.86926 | 8.37828 | 33653 ft | 421 kts | 191° |
| 2026-05-07 12:14 | 48.83992 | 8.37229 | 33949 ft | 429 kts | 187° |
| 2026-05-07 12:14 | 48.80998 | 8.36796 | 34207 ft | 436 kts | 183° |
| 2026-05-07 12:14 | 48.77951 | 8.37181 | 34463 ft | 447 kts | 164° |
| 2026-05-07 12:15 | 48.75125 | 8.39192 | 34729 ft | 456 kts | 144° |
| 2026-05-07 12:15 | 48.72884 | 8.42632 | 35010 ft | 465 kts | 125° |
| 2026-05-07 12:15 | 48.71315 | 8.46955 | 35259 ft | 472 kts | 115° |
| 2026-05-07 12:15 | 48.69903 | 8.51477 | 35489 ft | 479 kts | 115° |
| 2026-05-07 12:16 | 48.68397 | 8.56007 | 35714 ft | 484 kts | 119° |
| 2026-05-07 12:16 | 48.66791 | 8.60444 | 35958 ft | 490 kts | 122° |
| 2026-05-07 12:16 | 48.64938 | 8.64784 | 36200 ft | 494 kts | 129° |
| 2026-05-07 12:16 | 48.62821 | 8.68895 | 36410 ft | 495 kts | 130° |
| 2026-05-07 12:17 | 48.60849 | 8.73154 | 36647 ft | 496 kts | 126° |
| 2026-05-07 12:17 | 48.58849 | 8.77412 | 36890 ft | 498 kts | 127° |
| 2026-05-07 12:17 | 48.56793 | 8.81618 | 37152 ft | 497 kts | 128° |
| 2026-05-07 12:17 | 48.54773 | 8.85852 | 37406 ft | 498 kts | 127° |
| 2026-05-07 12:18 | 48.52740 | 8.90100 | 37670 ft | 500 kts | 128° |
| 2026-05-07 12:18 | 48.50688 | 8.94341 | 37934 ft | 500 kts | 128° |
| 2026-05-07 12:18 | 48.48649 | 8.98582 | 38201 ft | 499 kts | 128° |
| 2026-05-07 12:18 | 48.46605 | 9.02824 | 38469 ft | 500 kts | 128° |
| 2026-05-07 12:19 | 48.44552 | 9.07062 | 38732 ft | 501 kts | 128° |
| 2026-05-07 12:19 | 48.42499 | 9.11307 | 38955 ft | 500 kts | 128° |
| 2026-05-07 12:19 | 48.40455 | 9.15523 | 39303 ft | 498 kts | 128° |
| 2026-05-07 12:19 | 48.38410 | 9.19729 | 39640 ft | 498 kts | 128° |
| 2026-05-07 12:20 | 48.36370 | 9.23927 | 39980 ft | 497 kts | 128° |
| 2026-05-07 12:20 | 48.34328 | 9.28120 | 40339 ft | 497 kts | 129° |
| 2026-05-07 12:20 | 48.32286 | 9.32302 | 40676 ft | 497 kts | 129° |
| 2026-05-07 12:20 | 48.30233 | 9.36504 | 40848 ft | 501 kts | 129° |
| 2026-05-07 12:21 | 48.28160 | 9.40740 | 40942 ft | 506 kts | 129° |
| 2026-05-07 12:21 | 48.23919 | 9.49350 | 40965 ft | 518 kts | 134° |
| 2026-05-07 12:21 | 48.21235 | 9.52961 | 41005 ft | 520 kts | 145° |
| 2026-05-07 12:22 | 48.18352 | 9.56204 | 41020 ft | 516 kts | 148° |
| 2026-05-07 12:22 | 48.12626 | 9.62665 | 41016 ft | 519 kts | 140° |
| 2026-05-07 12:23 | 48.07228 | 9.69787 | 41018 ft | 516 kts | 144° |
| 2026-05-07 12:23 | 48.01802 | 9.76817 | 41014 ft | 517 kts | 142° |
| 2026-05-07 12:24 | 47.96332 | 9.83784 | 41019 ft | 516 kts | 142° |
| 2026-05-07 12:24 | 47.90883 | 9.90741 | 41023 ft | 516 kts | 142° |
| 2026-05-07 12:25 | 47.85470 | 9.97652 | 41024 ft | 516 kts | 142° |
| 2026-05-07 12:25 | 47.79819 | 10.04287 | 41022 ft | 512 kts | 149° |
| 2026-05-07 12:26 | 47.74113 | 10.10569 | 41018 ft | 515 kts | 144° |
| 2026-05-07 12:26 | 47.68348 | 10.16868 | 41024 ft | 514 kts | 146° |
| 2026-05-07 12:27 | 47.62610 | 10.23213 | 41029 ft | 515 kts | 147° |
| 2026-05-07 12:27 | 47.56868 | 10.29545 | 41024 ft | 514 kts | 146° |
| 2026-05-07 12:28 | 47.51118 | 10.35846 | 41020 ft | 515 kts | 146° |
| 2026-05-07 12:28 | 47.45358 | 10.42139 | 40997 ft | 514 kts | 146° |
| 2026-05-07 12:29 | 47.39614 | 10.48455 | 40994 ft | 515 kts | 145° |
| 2026-05-07 12:29 | 47.36606 | 10.51265 | 40964 ft | 509 kts | 156° |
| 2026-05-07 12:29 | 47.33390 | 10.53428 | 40986 ft | 508 kts | 161° |
| 2026-05-07 12:30 | 47.27161 | 10.58453 | 40976 ft | 515 kts | 147° |
| 2026-05-07 12:30 | 47.20885 | 10.63346 | 40969 ft | 510 kts | 161° |
| 2026-05-07 12:31 | 47.14721 | 10.68476 | 40969 ft | 514 kts | 146° |
| 2026-05-07 12:31 | 47.11619 | 10.71002 | 40920 ft | 508 kts | 161° |
| 2026-05-07 12:31 | 47.08222 | 10.72295 | 40955 ft | 502 kts | 173° |
| 2026-05-07 12:32 | 47.01366 | 10.74207 | 40937 ft | 508 kts | 166° |
| 2026-05-07 12:32 | 46.94876 | 10.78318 | 40977 ft | 509 kts | 156° |
| 2026-05-07 12:33 | 46.85035 | 10.83991 | 40983 ft | 508 kts | 161° |
| 2026-05-07 12:33 | 46.78441 | 10.87674 | 40991 ft | 507 kts | 162° |
| 2026-05-07 12:34 | 46.71760 | 10.90830 | 40981 ft | 502 kts | 173° |
| 2026-05-07 12:34 | 46.64956 | 10.92783 | 40977 ft | 506 kts | 169° |
| 2026-05-07 12:35 | 46.58182 | 10.95436 | 40989 ft | 502 kts | 172° |
| 2026-05-07 12:35 | 46.51408 | 10.97930 | 41001 ft | 500 kts | 169° |
| 2026-05-07 12:36 | 46.44642 | 11.00374 | 41000 ft | 502 kts | 169° |
| 2026-05-07 12:36 | 46.37887 | 11.02853 | 41048 ft | 500 kts | 170° |
| 2026-05-07 12:37 | 46.31119 | 11.05330 | 41051 ft | 501 kts | 170° |
| 2026-05-07 12:37 | 46.24358 | 11.07783 | 41053 ft | 501 kts | 170° |
| 2026-05-07 12:38 | 46.17600 | 11.10232 | 41038 ft | 500 kts | 170° |
| 2026-05-07 12:38 | 46.10837 | 11.12686 | 41034 ft | 501 kts | 170° |
| 2026-05-07 12:39 | 46.04076 | 11.15125 | 41025 ft | 500 kts | 170° |
| 2026-05-07 12:39 | 45.97332 | 11.17553 | 40991 ft | 498 kts | 170° |
| 2026-05-07 12:40 | 45.90585 | 11.19983 | 41001 ft | 500 kts | 170° |
| 2026-05-07 12:40 | 45.83838 | 11.22394 | 41005 ft | 500 kts | 170° |
| 2026-05-07 12:41 | 45.77099 | 11.24798 | 40982 ft | 501 kts | 171° |
| 2026-05-07 12:41 | 45.70342 | 11.27159 | 40990 ft | 497 kts | 172° |
| 2026-05-07 12:42 | 45.63777 | 11.30419 | 40964 ft | 511 kts | 153° |
| 2026-05-07 12:42 | 45.57907 | 11.36247 | 40979 ft | 516 kts | 148° |
| 2026-05-07 12:43 | 45.52069 | 11.42155 | 40971 ft | 511 kts | 153° |
| 2026-05-07 12:43 | 45.45933 | 11.47221 | 40975 ft | 521 kts | 152° |
| 2026-05-07 12:44 | 45.39741 | 11.52482 | 40978 ft | 516 kts | 154° |
| 2026-05-07 12:44 | 45.33562 | 11.57758 | 40968 ft | 518 kts | 154° |
| 2026-05-07 12:45 | 45.27368 | 11.62987 | 40971 ft | 518 kts | 154° |
| 2026-05-07 12:45 | 45.21169 | 11.68210 | 40969 ft | 517 kts | 154° |
| 2026-05-07 12:46 | 45.14977 | 11.73426 | 40788 ft | 521 kts | 154° |
| 2026-05-07 12:46 | 45.11882 | 11.76023 | 40938 ft | 515 kts | 154° |
| 2026-05-07 12:46 | 45.08794 | 11.78611 | 41099 ft | 517 kts | 154° |
| 2026-05-07 12:47 | 45.05697 | 11.81206 | 41280 ft | 518 kts | 154° |
| 2026-05-07 12:47 | 45.02600 | 11.83798 | 41451 ft | 516 kts | 154° |
| 2026-05-07 12:47 | 44.99507 | 11.86381 | 41613 ft | 517 kts | 154° |
| 2026-05-07 12:47 | 44.96407 | 11.88968 | 41812 ft | 518 kts | 154° |
| 2026-05-07 12:48 | 44.93308 | 11.91553 | 41956 ft | 517 kts | 154° |
| 2026-05-07 12:48 | 44.90215 | 11.94125 | 42131 ft | 516 kts | 154° |
| 2026-05-07 12:48 | 44.87120 | 11.96697 | 42327 ft | 517 kts | 154° |
| 2026-05-07 12:48 | 44.84021 | 11.99271 | 42507 ft | 517 kts | 154° |
| 2026-05-07 12:49 | 44.80920 | 12.01842 | 42678 ft | 517 kts | 154° |
| 2026-05-07 12:49 | 44.77864 | 12.04372 | 42848 ft | 517 kts | 154° |
| 2026-05-07 12:49 | 44.71650 | 12.09510 | 42943 ft | 518 kts | 154° |
| 2026-05-07 12:50 | 44.65440 | 12.14628 | 42978 ft | 517 kts | 154° |
| 2026-05-07 12:50 | 44.59204 | 12.19681 | 42977 ft | 516 kts | 157° |
| 2026-05-07 12:51 | 44.53446 | 12.25797 | 42971 ft | 530 kts | 136° |
| 2026-05-07 12:51 | 44.48674 | 12.33740 | 42986 ft | 534 kts | 133° |
| 2026-05-07 12:52 | 44.44665 | 12.40269 | 42977 ft | 528 kts | 140° |
| 2026-05-07 12:52 | 44.39465 | 12.47529 | 42972 ft | 531 kts | 137° |
| 2026-05-07 12:53 | 44.34288 | 12.54869 | 43000 ft | 530 kts | 139° |
| 2026-05-07 12:53 | 44.29086 | 12.62300 | 42993 ft | 541 kts | 139° |
| 2026-05-07 12:54 | 44.23790 | 12.69810 | 42994 ft | 541 kts | 139° |
| 2026-05-07 12:54 | 44.18496 | 12.77281 | 42986 ft | 543 kts | 139° |
| 2026-05-07 12:55 | 44.13205 | 12.84743 | 42993 ft | 541 kts | 139° |
| 2026-05-07 12:55 | 44.07905 | 12.92194 | 42996 ft | 542 kts | 139° |
| 2026-05-07 12:56 | 44.02602 | 12.99628 | 42994 ft | 541 kts | 139° |
| 2026-05-07 12:56 | 43.97304 | 13.07035 | 42995 ft | 541 kts | 139° |
| 2026-05-07 12:57 | 43.92029 | 13.14391 | 42982 ft | 542 kts | 139° |
| 2026-05-07 12:57 | 43.86692 | 13.21814 | 42996 ft | 542 kts | 139° |
| 2026-05-07 12:58 | 43.81360 | 13.29208 | 42992 ft | 544 kts | 140° |
| 2026-05-07 12:58 | 43.76014 | 13.36603 | 42996 ft | 543 kts | 140° |
| 2026-05-07 12:59 | 43.70667 | 13.43979 | 42994 ft | 543 kts | 140° |
| 2026-05-07 12:59 | 43.65315 | 13.51343 | 42986 ft | 543 kts | 140° |
| 2026-05-07 13:00 | 43.59961 | 13.58693 | 42979 ft | 543 kts | 140° |
| 2026-05-07 13:00 | 43.54610 | 13.66012 | 43007 ft | 542 kts | 140° |
| 2026-05-07 13:01 | 43.49251 | 13.73329 | 43009 ft | 542 kts | 140° |
| 2026-05-07 13:01 | 43.43889 | 13.80628 | 43009 ft | 542 kts | 140° |
| 2026-05-07 13:02 | 43.38523 | 13.87913 | 43002 ft | 542 kts | 140° |
| 2026-05-07 13:02 | 43.33150 | 13.95190 | 43004 ft | 541 kts | 140° |
| 2026-05-07 13:03 | 43.27815 | 14.02499 | 43026 ft | 544 kts | 138° |
| 2026-05-07 13:03 | 43.21905 | 14.08616 | 43004 ft | 527 kts | 159° |
| 2026-05-07 13:04 | 43.15290 | 14.12908 | 43024 ft | 526 kts | 161° |
| 2026-05-07 13:04 | 43.08784 | 14.17520 | 43001 ft | 531 kts | 152° |
| 2026-05-07 13:05 | 43.02428 | 14.22474 | 43005 ft | 529 kts | 156° |
| 2026-05-07 13:05 | 42.96045 | 14.27501 | 43010 ft | 529 kts | 156° |
| 2026-05-07 13:06 | 42.89640 | 14.32463 | 42999 ft | 529 kts | 155° |
| 2026-05-07 13:06 | 42.83231 | 14.37403 | 43006 ft | 529 kts | 155° |
| 2026-05-07 13:07 | 42.76822 | 14.42353 | 43007 ft | 529 kts | 156° |
| 2026-05-07 13:07 | 42.70413 | 14.47287 | 42996 ft | 529 kts | 156° |
| 2026-05-07 13:08 | 42.63994 | 14.52212 | 43009 ft | 530 kts | 156° |
| 2026-05-07 13:08 | 42.57572 | 14.57132 | 43009 ft | 529 kts | 156° |
| 2026-05-07 13:09 | 42.51151 | 14.62038 | 43003 ft | 530 kts | 156° |
| 2026-05-07 13:09 | 42.44721 | 14.66939 | 43013 ft | 531 kts | 156° |
| 2026-05-07 13:10 | 42.38280 | 14.71838 | 43010 ft | 531 kts | 156° |
| 2026-05-07 13:10 | 42.31844 | 14.76720 | 42996 ft | 531 kts | 156° |
| 2026-05-07 13:11 | 42.25399 | 14.81599 | 42994 ft | 531 kts | 156° |
| 2026-05-07 13:11 | 42.18929 | 14.86481 | 43005 ft | 533 kts | 156° |
| 2026-05-07 13:12 | 42.12468 | 14.91350 | 43006 ft | 533 kts | 156° |
| 2026-05-07 13:12 | 42.05992 | 14.96218 | 42995 ft | 533 kts | 156° |
| 2026-05-07 13:13 | 41.99513 | 15.01074 | 42992 ft | 536 kts | 156° |
| 2026-05-07 13:13 | 41.93012 | 15.05939 | 43003 ft | 534 kts | 156° |
| 2026-05-07 13:14 | 41.86511 | 15.10787 | 43004 ft | 535 kts | 156° |
| 2026-05-07 13:14 | 41.80006 | 15.15630 | 43002 ft | 534 kts | 156° |
| 2026-05-07 13:15 | 41.73503 | 15.20460 | 42999 ft | 534 kts | 157° |
| 2026-05-07 13:15 | 41.66998 | 15.25280 | 42999 ft | 535 kts | 157° |
| 2026-05-07 13:16 | 41.60491 | 15.30087 | 42991 ft | 534 kts | 157° |
| 2026-05-07 13:16 | 41.53911 | 15.34737 | 42984 ft | 538 kts | 158° |
| 2026-05-07 13:17 | 41.47372 | 15.39400 | 42992 ft | 535 kts | 158° |
| 2026-05-07 13:17 | 41.40789 | 15.44079 | 42994 ft | 536 kts | 158° |
| 2026-05-07 13:18 | 41.34202 | 15.48738 | 42979 ft | 536 kts | 158° |
| 2026-05-07 13:18 | 41.27596 | 15.53401 | 42994 ft | 537 kts | 158° |
| 2026-05-07 13:19 | 41.20997 | 15.58054 | 42995 ft | 537 kts | 158° |
| 2026-05-07 13:19 | 41.14389 | 15.62701 | 42992 ft | 537 kts | 158° |
| 2026-05-07 13:20 | 41.07764 | 15.67346 | 42974 ft | 540 kts | 159° |
| 2026-05-07 13:20 | 41.01129 | 15.71992 | 42987 ft | 539 kts | 159° |
| 2026-05-07 13:21 | 40.94490 | 15.76626 | 42993 ft | 539 kts | 159° |
| 2026-05-07 13:21 | 40.87855 | 15.81249 | 42983 ft | 539 kts | 159° |
| 2026-05-07 13:22 | 40.81213 | 15.85864 | 43010 ft | 539 kts | 159° |
| 2026-05-07 13:22 | 40.74576 | 15.90467 | 43007 ft | 539 kts | 159° |
| 2026-05-07 13:23 | 40.67981 | 15.95032 | 42992 ft | 539 kts | 159° |
| 2026-05-07 13:23 | 40.61339 | 15.99618 | 42998 ft | 539 kts | 159° |
| 2026-05-07 13:24 | 40.54675 | 16.04206 | 43012 ft | 541 kts | 159° |
| 2026-05-07 13:24 | 40.48016 | 16.08780 | 43017 ft | 541 kts | 159° |
| 2026-05-07 13:25 | 40.41353 | 16.13355 | 42999 ft | 540 kts | 160° |
| 2026-05-07 13:25 | 40.34672 | 16.17919 | 43022 ft | 542 kts | 160° |
| 2026-05-07 13:26 | 40.27998 | 16.22476 | 43034 ft | 541 kts | 160° |
| 2026-05-07 13:26 | 40.21315 | 16.27033 | 43034 ft | 541 kts | 160° |
| 2026-05-07 13:27 | 40.14634 | 16.31570 | 43015 ft | 541 kts | 160° |
| 2026-05-07 13:27 | 40.07961 | 16.36161 | 43004 ft | 543 kts | 159° |
| 2026-05-07 13:28 | 40.01251 | 16.40753 | 43011 ft | 544 kts | 160° |
| 2026-05-07 13:28 | 39.97913 | 16.43046 | 43232 ft | 541 kts | 159° |
| 2026-05-07 13:28 | 39.94577 | 16.45322 | 43515 ft | 540 kts | 159° |
| 2026-05-07 13:29 | 39.91258 | 16.47593 | 43796 ft | 539 kts | 159° |
| 2026-05-07 13:29 | 39.87941 | 16.49858 | 44062 ft | 537 kts | 159° |
| 2026-05-07 13:29 | 39.84635 | 16.52110 | 44366 ft | 536 kts | 159° |
| 2026-05-07 13:29 | 39.81336 | 16.54358 | 44673 ft | 534 kts | 159° |
| 2026-05-07 13:30 | 39.78044 | 16.56599 | 44844 ft | 535 kts | 159° |
| 2026-05-07 13:30 | 39.74738 | 16.58844 | 44931 ft | 537 kts | 159° |
| 2026-05-07 13:30 | 39.68116 | 16.63339 | 44989 ft | 536 kts | 159° |
| 2026-05-07 13:31 | 39.61494 | 16.67822 | 44997 ft | 537 kts | 159° |
| 2026-05-07 13:31 | 39.54863 | 16.72302 | 44996 ft | 539 kts | 159° |
| 2026-05-07 13:32 | 39.48215 | 16.76786 | 45003 ft | 538 kts | 159° |
| 2026-05-07 13:32 | 39.41571 | 16.81253 | 45019 ft | 539 kts | 159° |
| 2026-05-07 13:33 | 39.34929 | 16.85712 | 45012 ft | 537 kts | 159° |
| 2026-05-07 13:33 | 39.28282 | 16.90165 | 45030 ft | 539 kts | 159° |
| 2026-05-07 13:34 | 39.18362 | 16.96791 | 45040 ft | 538 kts | 159° |
| 2026-05-07 13:35 | 39.11709 | 17.01224 | 45047 ft | 537 kts | 159° |
| 2026-05-07 13:35 | 39.05064 | 17.05639 | 45039 ft | 539 kts | 159° |
| 2026-05-07 13:36 | 38.98379 | 17.10076 | 45047 ft | 540 kts | 159° |
| 2026-05-07 13:36 | 38.91703 | 17.14493 | 45045 ft | 540 kts | 159° |
| 2026-05-07 13:37 | 38.85018 | 17.18911 | 45043 ft | 540 kts | 159° |
| 2026-05-07 13:37 | 38.78335 | 17.23315 | 45036 ft | 540 kts | 159° |
| 2026-05-07 13:38 | 38.71642 | 17.27718 | 45016 ft | 540 kts | 159° |
| 2026-05-07 13:38 | 38.64881 | 17.31841 | 45001 ft | 541 kts | 159° |
| 2026-05-07 13:38 | 38.61762 | 17.34614 | 44988 ft | 554 kts | 143° |
| 2026-05-07 13:39 | 38.59168 | 17.38310 | 45030 ft | 563 kts | 130° |
| 2026-05-07 13:39 | 38.54479 | 17.46389 | 45028 ft | 566 kts | 130° |
| 2026-05-07 13:40 | 38.49412 | 17.53975 | 45023 ft | 558 kts | 141° |
| 2026-05-07 13:40 | 38.44970 | 17.59997 | 45006 ft | 562 kts | 135° |
| 2026-05-07 13:41 | 38.39629 | 17.67224 | 45019 ft | 560 kts | 137° |
| 2026-05-07 13:41 | 38.34311 | 17.74490 | 45022 ft | 560 kts | 138° |
| 2026-05-07 13:42 | 38.28975 | 17.81752 | 45019 ft | 562 kts | 138° |
| 2026-05-07 13:42 | 38.23627 | 17.88986 | 45029 ft | 561 kts | 138° |
| 2026-05-07 13:43 | 38.18279 | 17.96214 | 45026 ft | 561 kts | 138° |
| 2026-05-07 13:43 | 38.12930 | 18.03429 | 45021 ft | 561 kts | 138° |
| 2026-05-07 13:44 | 38.07576 | 18.10632 | 45024 ft | 561 kts | 138° |
| 2026-05-07 13:44 | 38.02218 | 18.17825 | 45028 ft | 561 kts | 138° |
| 2026-05-07 13:45 | 37.96859 | 18.25003 | 45025 ft | 561 kts | 138° |
| 2026-05-07 13:45 | 37.91493 | 18.32174 | 45025 ft | 561 kts | 138° |
| 2026-05-07 13:46 | 37.86124 | 18.39332 | 45015 ft | 560 kts | 138° |
| 2026-05-07 13:46 | 37.80748 | 18.46481 | 45023 ft | 561 kts | 138° |
| 2026-05-07 13:47 | 37.75358 | 18.53638 | 45024 ft | 562 kts | 138° |
| 2026-05-07 13:47 | 37.69968 | 18.60775 | 45027 ft | 561 kts | 138° |
| 2026-05-07 13:48 | 37.64570 | 18.67906 | 45031 ft | 562 kts | 138° |
| 2026-05-07 13:48 | 37.59206 | 18.74978 | 45017 ft | 561 kts | 138° |
| 2026-05-07 13:49 | 37.53756 | 18.82143 | 45024 ft | 565 kts | 138° |
| 2026-05-07 13:49 | 37.48361 | 18.89228 | 45025 ft | 563 kts | 138° |
| 2026-05-07 13:50 | 37.42930 | 18.96339 | 45025 ft | 564 kts | 138° |
| 2026-05-07 13:50 | 37.37492 | 19.03443 | 45039 ft | 563 kts | 138° |
| 2026-05-07 13:51 | 37.32053 | 19.10534 | 45035 ft | 563 kts | 138° |
| 2026-05-07 13:51 | 37.26597 | 19.17630 | 45034 ft | 566 kts | 138° |
| 2026-05-07 13:52 | 37.21135 | 19.24719 | 45033 ft | 564 kts | 138° |
| 2026-05-07 13:52 | 37.15660 | 19.31809 | 45044 ft | 566 kts | 138° |
| 2026-05-07 13:53 | 37.10190 | 19.38877 | 45040 ft | 565 kts | 138° |
| 2026-05-07 13:53 | 37.04715 | 19.45936 | 45044 ft | 565 kts | 138° |
| 2026-05-07 13:54 | 36.99221 | 19.53004 | 45037 ft | 566 kts | 138° |
| 2026-05-07 13:54 | 36.93842 | 19.60200 | 45019 ft | 571 kts | 129° |
| 2026-05-07 13:54 | 36.91878 | 19.64532 | 45039 ft | 577 kts | 113° |
| 2026-05-07 13:55 | 36.90599 | 19.69214 | 45070 ft | 578 kts | 106° |
| 2026-05-07 13:55 | 36.88464 | 19.78902 | 45045 ft | 578 kts | 107° |
| 2026-05-07 13:56 | 36.85660 | 19.88302 | 45037 ft | 579 kts | 110° |
| 2026-05-07 13:56 | 36.82966 | 19.97760 | 45066 ft | 578 kts | 111° |
| 2026-05-07 13:57 | 36.80259 | 20.07197 | 45072 ft | 578 kts | 111° |
| 2026-05-07 13:57 | 36.77517 | 20.16621 | 45067 ft | 578 kts | 110° |
| 2026-05-07 13:58 | 36.74772 | 20.26028 | 45066 ft | 579 kts | 111° |
| 2026-05-07 13:58 | 36.72020 | 20.35454 | 45085 ft | 578 kts | 111° |
| 2026-05-07 13:59 | 36.69260 | 20.44869 | 45084 ft | 578 kts | 111° |
| 2026-05-07 13:59 | 36.66491 | 20.54278 | 45083 ft | 578 kts | 110° |
| 2026-05-07 14:00 | 36.63716 | 20.63674 | 45070 ft | 578 kts | 111° |
| 2026-05-07 14:00 | 36.60932 | 20.73075 | 45087 ft | 579 kts | 111° |
| 2026-05-07 14:01 | 36.58142 | 20.82461 | 45088 ft | 578 kts | 111° |
| 2026-05-07 14:01 | 36.55344 | 20.91845 | 45091 ft | 578 kts | 111° |
| 2026-05-07 14:02 | 36.52539 | 21.01218 | 45100 ft | 579 kts | 111° |
| 2026-05-07 14:02 | 36.49727 | 21.10582 | 45098 ft | 578 kts | 111° |
| 2026-05-07 14:03 | 36.46907 | 21.19943 | 45104 ft | 579 kts | 111° |
| 2026-05-07 14:03 | 36.44078 | 21.29305 | 45108 ft | 579 kts | 111° |
| 2026-05-07 14:04 | 36.41243 | 21.38655 | 45098 ft | 578 kts | 111° |
| 2026-05-07 14:04 | 36.38401 | 21.47997 | 45100 ft | 579 kts | 111° |
| 2026-05-07 14:05 | 36.35569 | 21.57274 | 45104 ft | 579 kts | 111° |
| 2026-05-07 14:05 | 36.32712 | 21.66604 | 45106 ft | 579 kts | 111° |
| 2026-05-07 14:06 | 36.29845 | 21.75934 | 45114 ft | 579 kts | 111° |
| 2026-05-07 14:06 | 36.26955 | 21.85309 | 45116 ft | 585 kts | 111° |
| 2026-05-07 14:07 | 36.24037 | 21.94743 | 44498 ft | 585 kts | 111° |
| 2026-05-07 14:07 | 36.22583 | 21.99429 | 43889 ft | 583 kts | 111° |
| 2026-05-07 14:07 | 36.21126 | 22.04126 | 43313 ft | 586 kts | 110° |
| 2026-05-07 14:07 | 36.19660 | 22.08839 | 42752 ft | 588 kts | 110° |
| 2026-05-07 14:08 | 36.18184 | 22.13576 | 42216 ft | 590 kts | 110° |
| 2026-05-07 14:08 | 36.16704 | 22.18317 | 41680 ft | 592 kts | 110° |
| 2026-05-07 14:08 | 36.15220 | 22.23072 | 41146 ft | 593 kts | 109° |
| 2026-05-07 14:08 | 36.13727 | 22.27838 | 40659 ft | 595 kts | 109° |
| 2026-05-07 14:09 | 36.12226 | 22.32621 | 40152 ft | 598 kts | 109° |
| 2026-05-07 14:09 | 36.10715 | 22.37434 | 39670 ft | 601 kts | 109° |
| 2026-05-07 14:09 | 36.09197 | 22.42257 | 39196 ft | 603 kts | 109° |
| 2026-05-07 14:09 | 36.07672 | 22.47096 | 38733 ft | 605 kts | 108° |
| 2026-05-07 14:10 | 36.06141 | 22.51950 | 38170 ft | 607 kts | 108° |
| 2026-05-07 14:10 | 36.04605 | 22.56813 | 37627 ft | 608 kts | 109° |
| 2026-05-07 14:10 | 36.03059 | 22.61686 | 37091 ft | 610 kts | 109° |
| 2026-05-07 14:10 | 36.01509 | 22.66577 | 36561 ft | 612 kts | 109° |
| 2026-05-07 14:11 | 35.99952 | 22.71474 | 36055 ft | 614 kts | 109° |
| 2026-05-07 14:11 | 35.98386 | 22.76391 | 35418 ft | 618 kts | 109° |
| 2026-05-07 14:11 | 35.96813 | 22.81327 | 34711 ft | 613 kts | 110° |
| 2026-05-07 14:11 | 35.95268 | 22.86160 | 33975 ft | 597 kts | 110° |
| 2026-05-07 14:12 | 35.93760 | 22.90874 | 33175 ft | 584 kts | 110° |
| 2026-05-07 14:12 | 35.92275 | 22.95508 | 31856 ft | 581 kts | 110° |
| 2026-05-07 14:12 | 35.90788 | 23.00143 | 30394 ft | 581 kts | 110° |
| 2026-05-07 14:12 | 35.89310 | 23.04737 | 29311 ft | 570 kts | 110° |
| 2026-05-07 14:13 | 35.87867 | 23.09232 | 28238 ft | 557 kts | 110° |
| 2026-05-07 14:13 | 35.86449 | 23.13622 | 27217 ft | 545 kts | 110° |
| 2026-05-07 14:13 | 35.85063 | 23.17911 | 26378 ft | 530 kts | 111° |
| 2026-05-07 14:13 | 35.83722 | 23.22064 | 25653 ft | 514 kts | 111° |
| 2026-05-07 14:14 | 35.82418 | 23.26092 | 24946 ft | 500 kts | 111° |
| 2026-05-07 14:14 | 35.81139 | 23.30036 | 23774 ft | 496 kts | 111° |
| 2026-05-07 14:14 | 35.79857 | 23.33986 | 22194 ft | 497 kts | 112° |
| 2026-05-07 14:14 | 35.78575 | 23.37926 | 20870 ft | 493 kts | 112° |
| 2026-05-07 14:15 | 35.77327 | 23.41761 | 20155 ft | 473 kts | 112° |
| 2026-05-07 14:15 | 35.76124 | 23.45455 | 19433 ft | 457 kts | 112° |
| 2026-05-07 14:15 | 35.74959 | 23.49025 | 18740 ft | 443 kts | 112° |
| 2026-05-07 14:15 | 35.73826 | 23.52488 | 17987 ft | 431 kts | 113° |
| 2026-05-07 14:16 | 35.72747 | 23.55784 | 17193 ft | 392 kts | 112° |
| 2026-05-07 14:16 | 35.71729 | 23.58895 | 16428 ft | 390 kts | 112° |
| 2026-05-07 14:16 | 35.70718 | 23.61977 | 15692 ft | 387 kts | 112° |
| 2026-05-07 14:16 | 35.69714 | 23.65035 | 14970 ft | 384 kts | 112° |
| 2026-05-07 14:17 | 35.68718 | 23.68071 | 14265 ft | 381 kts | 112° |
| 2026-05-07 14:17 | 35.67741 | 23.71037 | 13527 ft | 378 kts | 112° |
| 2026-05-07 14:17 | 35.66783 | 23.73941 | 12723 ft | 346 kts | 112° |
| 2026-05-07 14:17 | 35.65898 | 23.76604 | 11245 ft | 328 kts | 111° |
| 2026-05-07 14:18 | 35.65053 | 23.79139 | 9800 ft | 313 kts | 112° |
| 2026-05-07 14:18 | 35.64249 | 23.81555 | 8476 ft | 296 kts | 112° |
| 2026-05-07 14:18 | 35.63492 | 23.83841 | 7254 ft | 282 kts | 112° |
| 2026-05-07 14:18 | 35.62775 | 23.86030 | 6034 ft | 271 kts | 112° |
| 2026-05-07 14:19 | 35.62430 | 23.88252 | 4899 ft | 259 kts | 95° |
| 2026-05-07 14:19 | 35.62575 | 23.90322 | 4082 ft | 235 kts | 95° |
| 2026-05-07 14:19 | 35.62036 | 23.92170 | 3603 ft | 227 kts | 123° |
| 2026-05-07 14:19 | 35.61092 | 23.93707 | 3422 ft | 223 kts | 131° |
| 2026-05-07 14:20 | 35.60138 | 23.95097 | 3907 ft | 217 kts | 131° |
| 2026-05-07 14:20 | 35.59132 | 23.96555 | 3683 ft | 229 kts | 131° |
| 2026-05-07 14:20 | 35.58208 | 23.98082 | 3559 ft | 217 kts | 117° |
| 2026-05-07 14:20 | 35.57650 | 23.99773 | 3359 ft | 212 kts | 109° |
| 2026-05-07 14:21 | 35.57254 | 24.01509 | 3119 ft | 208 kts | 103° |
| 2026-05-07 14:21 | 35.56910 | 24.03235 | 2768 ft | 210 kts | 104° |
| 2026-05-07 14:21 | 35.56522 | 24.04969 | 2386 ft | 213 kts | 111° |
| 2026-05-07 14:21 | 35.55953 | 24.06632 | 2104 ft | 209 kts | 114° |
| 2026-05-07 14:22 | 35.55352 | 24.08258 | 1732 ft | 210 kts | 116° |
| 2026-05-07 14:22 | 35.54774 | 24.09894 | 1437 ft | 204 kts | 108° |
| 2026-05-07 14:22 | 35.54307 | 24.11478 | 1053 ft | 190 kts | 111° |
| 2026-05-07 14:22 | 35.53837 | 24.12925 | 648 ft | 178 kts | 111° |
| 2026-05-07 14:23 | 35.53411 | 24.14242 | 505 ft | 149 kts | 111° |
| 2026-05-07 14:23 | 35.53082 | 24.15266 | 483 ft | 101 kts | 110° |
| 2026-05-07 14:23 | 35.52897 | 24.15839 | 485 ft | 47 kts | 112° |
| 2026-05-07 14:23 | 35.52936 | 24.15985 | 488 ft | 11 kts | 10° |
| 2026-05-07 14:24 | 35.53032 | 24.15999 | 490 ft | 17 kts | 6° |
| 2026-05-07 14:24 | 35.53167 | 24.15994 | 494 ft | 22 kts | 340° |
| 2026-05-07 14:24 | 35.53314 | 24.15894 | 490 ft | 27 kts | 324° |
| 2026-05-07 14:24 | 35.53298 | 24.15794 | 486 ft | 7 kts | 212° |
| 2026-05-07 14:25 | 35.53296 | 24.15793 | 486 ft | 0 kts | 212° |